createdAt,value
2022-10-07T00:02:15.036Z,29.50
2022-10-07T00:04:46.361Z,29.10
2022-10-07T00:07:13.446Z,30.90
2022-10-07T00:09:39.971Z,31.80
2022-10-07T00:12:07.029Z,31.10
2022-10-07T00:14:33.693Z,33.10
2022-10-07T00:17:00.262Z,29.20
2022-10-07T00:19:27.252Z,30.20
2022-10-07T00:21:53.969Z,31.40
2022-10-07T00:24:20.438Z,34.10
2022-10-07T00:26:47.178Z,27.80
2022-10-07T00:29:13.890Z,28.40
2022-10-07T00:31:41.737Z,28.80
2022-10-07T00:34:08.422Z,29.20
2022-10-07T00:36:36.904Z,28.00
2022-10-07T00:39:08.954Z,26.80
2022-10-07T00:41:37.897Z,27.60
2022-10-07T00:44:32.469Z,27.70
2022-10-07T00:46:59.973Z,25.60
2022-10-07T00:49:27.397Z,25.80
2022-10-07T00:51:54.063Z,26.50
2022-10-07T00:54:20.813Z,28.80
2022-10-07T00:56:47.386Z,30.90
2022-10-07T00:59:14.233Z,28.90
2022-10-07T01:01:42.468Z,25.90
2022-10-07T01:04:09.999Z,25.80
2022-10-07T01:06:39.342Z,27.40
2022-10-07T01:09:09.792Z,27.50
2022-10-07T01:11:59.272Z,26.50
2022-10-07T01:14:53.636Z,26.00
2022-10-07T01:17:28.017Z,25.20
2022-10-07T01:20:00.682Z,25.60
2022-10-07T01:22:55.169Z,26.30
2022-10-07T01:25:33.825Z,24.40
2022-10-07T01:28:13.409Z,26.10
2022-10-07T01:30:42.108Z,24.10
2022-10-07T01:33:15.005Z,26.20
2022-10-07T01:35:42.951Z,27.70
2022-10-07T01:38:09.884Z,27.70
2022-10-07T01:40:40.890Z,29.50
2022-10-07T01:43:07.692Z,27.30
2022-10-07T01:45:35.506Z,24.10
2022-10-07T01:48:02.355Z,25.00
2022-10-07T01:50:29.150Z,25.50
2022-10-07T01:53:41.069Z,28.20
2022-10-07T01:56:21.325Z,27.80
2022-10-07T01:58:50.841Z,27.20
2022-10-07T02:02:04.424Z,25.40
2022-10-07T02:04:33.692Z,30.20
2022-10-07T02:07:17.236Z,29.10
2022-10-07T02:09:50.316Z,25.30
2022-10-07T02:13:08.268Z,24.80
2022-10-07T02:15:48.900Z,22.10
2022-10-07T02:18:17.219Z,22.60
2022-10-07T02:20:48.495Z,23.90
2022-10-07T02:23:15.034Z,27.30
2022-10-07T02:25:45.829Z,24.60
2022-10-07T02:28:12.637Z,23.90
2022-10-07T02:30:39.248Z,24.00
2022-10-07T02:33:06.427Z,24.10
2022-10-07T02:35:40.649Z,24.10
2022-10-07T02:38:10.210Z,23.80
2022-10-07T02:40:40.175Z,22.80
2022-10-07T02:43:15.495Z,25.60
2022-10-07T02:45:46.082Z,23.90
2022-10-07T02:48:19.349Z,24.90
2022-10-07T02:50:47.491Z,26.60
2022-10-07T02:53:13.971Z,25.40
2022-10-07T02:55:40.527Z,26.00
2022-10-07T02:58:07.332Z,26.60
2022-10-07T03:06:04.838Z,23.10
2022-10-07T03:08:31.360Z,22.80
2022-10-07T03:10:57.773Z,24.70
2022-10-07T03:13:32.924Z,24.70
2022-10-07T03:15:59.389Z,26.00
2022-10-07T03:18:29.622Z,27.50
2022-10-07T03:20:56.578Z,25.40
2022-10-07T03:23:24.041Z,25.70
2022-10-07T03:25:54.641Z,30.90
2022-10-07T03:28:21.940Z,29.70
2022-10-07T03:30:48.841Z,29.10
2022-10-07T03:33:16.377Z,26.90
2022-10-07T03:35:42.838Z,28.90
2022-10-07T03:38:10.653Z,28.70
2022-10-07T03:40:38.257Z,29.80
2022-10-07T03:43:05.459Z,28.90
2022-10-07T03:45:32.031Z,27.30
2022-10-07T03:47:59.432Z,26.50
2022-10-07T03:50:26.203Z,26.50
2022-10-07T03:52:52.783Z,26.10
2022-10-07T03:55:19.920Z,25.30
2022-10-07T03:57:57.078Z,25.00
2022-10-07T04:00:26.633Z,24.40
2022-10-07T04:02:53.307Z,24.30
2022-10-07T04:05:20.586Z,23.60
2022-10-07T04:07:48.146Z,26.20
2022-10-07T04:10:16.761Z,26.30
2022-10-07T04:12:43.973Z,25.40
2022-10-07T04:15:14.020Z,24.80
2022-10-07T04:17:41.397Z,24.00
2022-10-07T04:20:08.531Z,25.80
2022-10-07T04:22:35.632Z,27.80
2022-10-07T04:25:21.417Z,30.50
2022-10-07T04:27:54.687Z,27.80
2022-10-07T04:30:21.520Z,25.60
2022-10-07T04:32:50.645Z,24.50
2022-10-07T04:35:18.266Z,25.40
2022-10-07T04:37:44.942Z,27.60
2022-10-07T04:40:11.674Z,29.70
2022-10-07T04:42:57.185Z,29.20
2022-10-07T04:45:23.624Z,27.00
2022-10-07T04:47:51.615Z,29.60
2022-10-07T04:50:18.148Z,31.60
2022-10-07T04:52:44.686Z,31.00
2022-10-07T04:55:14.398Z,39.90
2022-10-07T04:57:41.321Z,43.10
2022-10-07T05:00:08.833Z,42.10
2022-10-07T05:02:35.783Z,39.30
2022-10-07T05:05:02.353Z,39.00
2022-10-07T05:07:28.793Z,35.00
2022-10-07T05:09:55.379Z,35.00
2022-10-07T05:12:21.909Z,34.40
2022-10-07T05:14:48.422Z,31.00
2022-10-07T05:17:15.071Z,28.30
2022-10-07T05:19:41.589Z,27.70
2022-10-07T05:22:08.054Z,26.90
2022-10-07T05:24:34.792Z,28.50
2022-10-07T05:27:01.886Z,26.90
2022-10-07T05:29:28.356Z,28.70
2022-10-07T05:31:55.007Z,27.00
2022-10-07T05:34:21.648Z,25.60
2022-10-07T05:36:48.185Z,24.10
2022-10-07T05:39:14.678Z,23.70
2022-10-07T05:41:45.603Z,23.00
2022-10-07T05:44:12.432Z,24.00
2022-10-07T05:46:40.235Z,23.20
2022-10-07T05:49:06.869Z,24.20
2022-10-07T05:51:33.447Z,23.50
2022-10-07T05:54:00.046Z,24.60
2022-10-07T05:56:26.604Z,23.20
2022-10-07T05:58:53.194Z,23.20
2022-10-07T06:01:23.605Z,25.80
2022-10-07T06:03:57.529Z,23.90
2022-10-07T06:06:24.522Z,23.30
2022-10-07T06:08:51.306Z,23.70
2022-10-07T06:11:37.130Z,22.90
2022-10-07T06:14:03.997Z,20.50
2022-10-07T06:16:30.709Z,21.80
2022-10-07T06:18:57.534Z,21.40
2022-10-07T06:21:28.613Z,18.90
2022-10-07T06:23:55.708Z,17.50
2022-10-07T06:26:22.707Z,17.20
2022-10-07T06:28:49.395Z,17.30
2022-10-07T06:31:17.726Z,16.90
2022-10-07T06:33:44.461Z,15.90
2022-10-07T06:36:12.273Z,15.60
2022-10-07T06:38:41.354Z,15.30
2022-10-07T06:41:08.933Z,16.00
2022-10-07T06:43:35.377Z,18.00
2022-10-07T06:46:03.731Z,18.50
2022-10-07T06:48:32.338Z,18.80
2022-10-07T06:50:59.144Z,19.50
2022-10-07T06:53:25.944Z,20.80
2022-10-07T06:55:54.828Z,21.00
2022-10-07T06:58:22.127Z,20.80
2022-10-07T07:00:50.246Z,20.80
2022-10-07T07:03:17.420Z,17.70
2022-10-07T07:05:45.789Z,14.80
2022-10-07T07:08:15.896Z,12.50
2022-10-07T07:10:43.121Z,12.50
2022-10-07T07:13:09.915Z,11.90
2022-10-07T07:15:36.630Z,11.20
2022-10-07T07:18:04.282Z,10.20
2022-10-07T07:20:35.841Z,9.70
2022-10-07T07:23:02.905Z,10.60
2022-10-07T07:25:29.482Z,9.90
2022-10-07T07:27:58.693Z,9.60
2022-10-07T07:30:25.461Z,9.20
2022-10-07T07:32:52.157Z,8.60
2022-10-07T07:35:18.579Z,9.00
2022-10-07T07:37:46.174Z,11.00
2022-10-07T07:40:13.166Z,10.60
2022-10-07T07:42:39.808Z,10.40
2022-10-07T07:45:08.859Z,9.20
2022-10-07T07:47:35.995Z,7.70
2022-10-07T07:50:03.805Z,8.50
2022-10-07T07:52:30.509Z,7.40
2022-10-07T07:54:59.195Z,7.50
2022-10-07T07:57:26.909Z,8.30
2022-10-07T07:59:54.705Z,7.10
2022-10-07T08:02:22.362Z,6.80
2022-10-07T08:04:49.195Z,7.10
2022-10-07T08:07:16.200Z,6.70
2022-10-07T08:09:43.186Z,7.10
2022-10-07T08:12:09.645Z,7.10
2022-10-07T08:14:37.909Z,6.80
2022-10-07T08:17:04.443Z,7.10
2022-10-07T08:19:30.861Z,8.10
2022-10-07T08:21:58.213Z,7.30
2022-10-07T08:24:28.021Z,7.40
2022-10-07T08:26:54.581Z,7.00
2022-10-07T08:29:21.817Z,8.30
2022-10-07T08:31:49.253Z,8.10
2022-10-07T08:34:15.701Z,8.30
2022-10-07T08:36:47.197Z,8.70
2022-10-07T08:39:14.552Z,8.60
2022-10-07T08:42:08.710Z,8.70
2022-10-07T08:44:40.223Z,8.80
2022-10-07T08:47:16.249Z,9.10
2022-10-07T08:49:44.888Z,8.80
2022-10-07T08:52:42.478Z,9.80
2022-10-07T08:55:20.389Z,9.90
2022-10-07T08:58:04.394Z,8.70
2022-10-07T09:00:50.736Z,9.70
2022-10-07T09:03:44.681Z,8.30
2022-10-07T09:06:26.466Z,8.40
2022-10-07T09:08:57.287Z,7.90
2022-10-07T09:11:25.920Z,7.90
2022-10-07T09:13:54.911Z,8.30
2022-10-07T09:16:43.218Z,9.00
2022-10-07T09:19:16.931Z,8.20
2022-10-07T09:21:53.934Z,7.40
2022-10-07T09:24:23.369Z,8.90
2022-10-07T09:26:56.065Z,11.40
2022-10-07T09:29:24.483Z,10.50
2022-10-07T09:31:50.961Z,9.60
2022-10-07T09:34:26.336Z,9.50
2022-10-07T09:37:12.123Z,9.60
2022-10-07T09:39:39.277Z,12.60
2022-10-07T09:42:06.810Z,12.10
2022-10-07T09:44:33.224Z,13.30
2022-10-07T09:47:00.078Z,12.70
2022-10-07T09:49:29.572Z,11.90
2022-10-07T09:52:24.766Z,11.30
2022-10-07T09:54:52.886Z,11.70
2022-10-07T09:57:23.575Z,11.80
2022-10-07T09:59:50.360Z,10.80
2022-10-07T10:02:24.408Z,13.40
2022-10-07T10:04:53.278Z,11.80
2022-10-07T10:07:27.436Z,11.20
2022-10-07T10:09:55.463Z,9.30
2022-10-07T10:12:22.363Z,8.00
2022-10-07T10:14:56.503Z,6.50
2022-10-07T10:17:34.785Z,16.30
2022-10-07T10:20:26.346Z,7.30
2022-10-07T10:22:52.918Z,8.90
2022-10-07T10:25:50.669Z,6.90
2022-10-07T10:28:39.371Z,31.30
2022-10-07T10:31:22.867Z,9.80
2022-10-07T10:34:06.850Z,7.60
2022-10-07T10:36:33.452Z,7.00
2022-10-07T10:39:03.753Z,53.70
2022-10-07T10:41:42.329Z,38.90
2022-10-07T10:44:39.747Z,24.70
2022-10-07T10:47:33.809Z,8.90
2022-10-07T10:50:29.013Z,17.60
2022-10-07T10:53:20.812Z,9.10
2022-10-07T10:56:05.467Z,6.50
2022-10-07T10:58:43.289Z,8.30
2022-10-07T11:01:19.158Z,15.20
2022-10-07T11:04:09.851Z,7.10
2022-10-07T11:06:37.180Z,6.80
2022-10-07T11:09:03.880Z,7.80
2022-10-07T11:11:30.537Z,6.90
2022-10-07T11:14:09.390Z,6.50
2022-10-07T11:16:44.897Z,7.40
2022-10-07T11:19:27.039Z,7.20
2022-10-07T11:21:54.113Z,6.50
2022-10-07T11:24:25.276Z,6.70
2022-10-07T11:26:58.972Z,6.90
2022-10-07T11:29:44.207Z,7.20
2022-10-07T11:32:17.727Z,7.40
2022-10-07T11:34:54.337Z,6.10
2022-10-07T11:37:43.784Z,6.90
2022-10-07T11:40:10.239Z,6.80
2022-10-07T11:42:40.497Z,7.00
2022-10-07T11:45:08.371Z,5.80
2022-10-07T11:47:36.633Z,5.40
2022-10-07T11:50:07.835Z,6.40
2022-10-07T11:52:38.152Z,7.20
2022-10-07T11:55:05.813Z,5.80
2022-10-07T11:57:34.646Z,5.20
2022-10-07T12:00:08.401Z,5.10
2022-10-07T12:02:43.149Z,4.40
2022-10-07T12:05:35.860Z,5.50
2022-10-07T12:08:18.237Z,4.90
2022-10-07T12:10:44.840Z,5.50
2022-10-07T12:13:11.478Z,5.00
2022-10-07T12:15:40.055Z,5.10
2022-10-07T12:18:06.728Z,6.20
2022-10-07T12:20:51.446Z,5.30
2022-10-07T12:23:22.327Z,22.20
2022-10-07T12:26:00.780Z,9.40
2022-10-07T12:28:37.694Z,5.40
2022-10-07T12:31:16.624Z,5.00
2022-10-07T12:33:46.666Z,4.50
2022-10-07T12:36:22.285Z,4.50
2022-10-07T12:38:58.870Z,3.90
2022-10-07T12:41:32.892Z,6.10
2022-10-07T12:44:23.517Z,9.40
2022-10-07T12:46:56.509Z,212.90
2022-10-07T12:49:30.408Z,26.00
2022-10-07T12:51:59.437Z,7.90
2022-10-07T12:54:33.272Z,6.80
2022-10-07T12:57:00.586Z,4.80
2022-10-07T12:59:48.639Z,4.40
2022-10-07T13:02:43.768Z,4.60
2022-10-07T13:05:48.739Z,4.60
2022-10-07T13:08:36.142Z,4.00
2022-10-07T13:11:30.158Z,4.50
2022-10-07T13:14:10.880Z,6.20
2022-10-07T13:16:39.795Z,5.20
2022-10-07T13:19:06.256Z,5.60
2022-10-07T13:21:44.290Z,6.60
2022-10-07T13:24:15.119Z,6.50
2022-10-07T13:26:43.546Z,4.00
2022-10-07T13:29:39.418Z,3.60
2022-10-07T13:32:09.856Z,3.70
2022-10-07T13:34:36.342Z,4.50
2022-10-07T13:37:03.017Z,4.20
2022-10-07T13:39:30.755Z,4.80
2022-10-07T13:41:58.633Z,5.30
2022-10-07T13:44:27.813Z,4.70
2022-10-07T13:47:05.122Z,4.00
2022-10-07T13:49:37.702Z,5.30
2022-10-07T13:52:06.996Z,6.70
2022-10-07T13:54:33.848Z,5.00
2022-10-07T13:57:02.523Z,4.40
2022-10-07T13:59:29.177Z,4.70
2022-10-07T14:01:58.301Z,4.60
2022-10-07T14:04:33.798Z,4.80
2022-10-07T14:07:12.473Z,4.70
2022-10-07T14:09:49.225Z,4.70
2022-10-07T14:12:21.439Z,5.20
2022-10-07T14:14:49.445Z,4.90
2022-10-07T14:17:39.706Z,5.20
2022-10-07T14:20:16.102Z,7.20
2022-10-07T14:22:43.232Z,6.30
2022-10-07T14:25:28.034Z,6.00
2022-10-07T14:27:55.566Z,6.10
2022-10-07T14:30:55.554Z,6.30
2022-10-07T14:33:59.003Z,7.00
2022-10-07T14:36:25.710Z,5.50
2022-10-07T14:38:52.556Z,6.90
2022-10-07T14:41:21.533Z,5.50
2022-10-07T14:43:49.370Z,5.90
2022-10-07T14:46:18.673Z,7.30
2022-10-07T14:48:46.150Z,6.30
2022-10-07T14:51:13.230Z,6.50
2022-10-07T14:53:40.685Z,11.30
2022-10-07T14:56:07.483Z,6.90
2022-10-07T14:58:34.447Z,6.40
2022-10-07T15:01:01.162Z,6.10
2022-10-07T15:03:29.762Z,6.20
2022-10-07T15:05:56.251Z,6.30
2022-10-07T15:08:22.665Z,6.50
2022-10-07T15:10:49.285Z,6.20
2022-10-07T15:13:15.831Z,8.40
2022-10-07T15:15:42.887Z,8.70
2022-10-07T15:18:11.763Z,8.80
2022-10-07T15:20:39.552Z,8.20
2022-10-07T15:23:09.379Z,11.60
2022-10-07T15:25:36.283Z,8.80
2022-10-07T15:28:02.890Z,9.20
2022-10-07T15:30:29.871Z,8.70
2022-10-07T15:32:57.860Z,9.30
2022-10-07T15:35:25.007Z,9.60
2022-10-07T15:37:51.572Z,8.30
2022-10-07T15:40:18.333Z,8.40
2022-10-07T15:42:45.380Z,8.60
2022-10-07T15:45:12.413Z,9.20
2022-10-07T15:47:39.349Z,10.40
2022-10-07T15:50:06.502Z,9.10
2022-10-07T15:52:33.342Z,8.80
2022-10-07T15:55:03.719Z,8.70
2022-10-07T15:59:59.912Z,8.20
2022-10-07T16:02:26.540Z,8.50
2022-10-07T16:04:52.995Z,8.80
2022-10-07T16:07:19.454Z,9.00
2022-10-07T16:09:46.419Z,8.60
2022-10-07T16:12:13.554Z,9.00
2022-10-07T16:14:40.439Z,11.90
2022-10-07T16:17:06.992Z,25.40
2022-10-07T16:19:33.615Z,31.10
2022-10-07T16:22:00.114Z,24.90
2022-10-07T16:24:29.020Z,20.10
2022-10-07T16:26:58.862Z,21.30
2022-10-07T16:29:44.066Z,21.60
2022-10-07T16:32:10.864Z,22.00
2022-10-07T16:34:38.822Z,22.80
2022-10-07T16:37:06.174Z,34.50
2022-10-07T16:39:32.628Z,42.00
2022-10-07T16:42:00.043Z,42.30
2022-10-07T16:44:27.916Z,45.60
2022-10-07T16:46:56.918Z,45.70
2022-10-07T16:49:25.924Z,46.30
2022-10-07T16:51:53.185Z,51.50
2022-10-07T16:54:19.878Z,33.50
2022-10-07T16:56:48.209Z,120.30
2022-10-07T16:59:22.470Z,97.70
2022-10-07T17:01:55.416Z,69.10
2022-10-07T17:04:22.312Z,47.60
2022-10-07T17:06:49.221Z,19.10
2022-10-07T17:09:17.421Z,19.60
2022-10-07T17:11:44.515Z,24.60
2022-10-07T17:14:16.363Z,27.80
2022-10-07T17:16:44.861Z,33.50
2022-10-07T17:19:17.687Z,33.50
2022-10-07T17:21:45.607Z,32.80
2022-10-07T17:24:13.173Z,28.30
2022-10-07T17:26:40.397Z,25.10
2022-10-07T17:29:08.455Z,28.30
2022-10-07T17:31:36.504Z,26.10
2022-10-07T17:34:06.271Z,25.70
2022-10-07T17:36:34.413Z,28.80
2022-10-07T17:39:00.969Z,27.90
2022-10-07T17:41:34.854Z,25.40
2022-10-07T17:44:02.408Z,24.60
2022-10-07T17:46:31.456Z,26.60
2022-10-07T17:48:59.343Z,24.10
2022-10-07T17:51:28.189Z,21.90
2022-10-07T17:53:55.313Z,25.90
2022-10-07T17:56:22.650Z,26.90
2022-10-07T17:58:49.204Z,27.10
2022-10-07T18:01:19.085Z,25.00
2022-10-07T18:03:53.401Z,24.70
2022-10-07T18:06:20.351Z,24.10
2022-10-07T18:08:48.016Z,24.60
2022-10-07T18:11:16.060Z,25.30
2022-10-07T18:14:01.164Z,32.30
2022-10-07T18:16:27.926Z,27.10
2022-10-07T18:18:55.208Z,23.30
2022-10-07T18:21:22.496Z,27.00
2022-10-07T18:23:50.545Z,29.00
2022-10-07T18:26:17.312Z,27.40
2022-10-07T18:28:44.064Z,30.30
2022-10-07T18:31:12.054Z,29.70
2022-10-07T18:33:39.231Z,32.90
2022-10-07T18:36:10.529Z,38.50
2022-10-07T18:38:39.332Z,39.90
2022-10-07T18:41:07.216Z,38.90
2022-10-07T18:43:33.735Z,36.30
2022-10-07T18:46:08.654Z,40.30
2022-10-07T18:48:36.392Z,41.60
2022-10-07T18:51:03.060Z,42.80
2022-10-07T18:53:34.196Z,47.00
2022-10-07T18:56:04.685Z,44.50
2022-10-07T18:58:38.782Z,42.90
2022-10-07T19:01:08.912Z,44.20
2022-10-07T19:03:35.527Z,47.40
2022-10-07T19:06:06.324Z,51.20
2022-10-07T19:08:33.070Z,49.20
2022-10-07T19:11:06.456Z,50.10
2022-10-07T19:13:48.901Z,35.40
2022-10-07T19:16:23.105Z,40.30
2022-10-07T19:18:51.536Z,41.30
2022-10-07T19:21:19.987Z,50.90
2022-10-07T19:23:50.679Z,49.00
2022-10-07T19:26:21.383Z,43.70
2022-10-07T19:28:48.960Z,43.40
2022-10-07T19:31:20.015Z,70.20
2022-10-07T19:33:47.163Z,65.80
2022-10-07T19:36:14.113Z,47.40
2022-10-07T19:38:44.191Z,42.50
2022-10-07T19:41:12.308Z,42.70
2022-10-07T19:43:39.579Z,62.70
2022-10-07T19:46:06.501Z,53.60
2022-10-07T19:48:33.781Z,47.30
2022-10-07T19:51:01.353Z,40.60
2022-10-07T19:53:33.970Z,38.50
2022-10-07T19:56:17.311Z,34.60
2022-10-07T19:58:48.931Z,33.20
2022-10-07T20:01:21.366Z,33.40
2022-10-07T20:03:48.853Z,36.60
2022-10-07T20:06:15.815Z,35.10
2022-10-07T20:08:43.827Z,34.20
2022-10-07T20:11:10.761Z,34.60
2022-10-07T20:13:37.908Z,33.70
2022-10-07T20:16:14.906Z,33.60
2022-10-07T20:18:41.522Z,36.30
2022-10-07T20:21:11.336Z,36.80
2022-10-07T20:23:40.383Z,36.50
2022-10-07T20:26:27.198Z,35.00
2022-10-07T20:28:55.569Z,32.40
2022-10-07T20:31:23.385Z,32.20
2022-10-07T20:33:51.624Z,32.50
2022-10-07T20:36:19.915Z,32.40
2022-10-07T20:39:05.616Z,30.70
2022-10-07T20:41:50.842Z,31.10
2022-10-07T20:44:17.712Z,31.30
2022-10-07T20:46:44.397Z,31.70
2022-10-07T20:49:23.148Z,33.20
2022-10-07T20:51:53.203Z,29.60
2022-10-07T20:54:20.346Z,30.40
2022-10-07T20:56:47.448Z,31.20
2022-10-07T20:59:14.268Z,29.10
2022-10-07T21:01:40.885Z,29.20
2022-10-07T21:04:08.267Z,28.70
2022-10-07T21:06:34.799Z,30.30
2022-10-07T21:09:01.368Z,31.10
2022-10-07T21:11:28.018Z,28.40
2022-10-07T21:13:57.381Z,31.00
2022-10-07T21:16:24.482Z,33.70
2022-10-07T21:18:51.297Z,35.80
2022-10-07T21:21:18.190Z,34.40
2022-10-07T21:23:45.536Z,31.70
2022-10-07T21:26:12.438Z,30.20
2022-10-07T21:28:39.508Z,30.40
2022-10-07T21:31:08.606Z,31.30
2022-10-07T21:33:36.436Z,30.70
2022-10-07T21:36:04.251Z,28.90
2022-10-07T21:38:33.889Z,29.70
2022-10-07T21:41:00.948Z,29.00
2022-10-07T21:43:27.994Z,28.90
2022-10-07T21:46:02.773Z,29.10
2022-10-07T21:48:30.150Z,29.90
2022-10-07T21:50:56.900Z,29.40
2022-10-07T21:53:23.723Z,28.90
2022-10-07T21:55:50.469Z,27.50
2022-10-07T21:58:17.000Z,29.50
2022-10-07T22:00:43.774Z,28.40
2022-10-07T22:03:13.188Z,28.10
2022-10-07T22:05:40.597Z,28.60
2022-10-07T22:08:29.638Z,26.80
2022-10-07T22:11:00.632Z,28.60
2022-10-07T22:13:28.203Z,27.20
2022-10-07T22:15:54.808Z,28.20
2022-10-07T22:18:21.991Z,27.00
2022-10-07T22:20:48.435Z,27.70
2022-10-07T22:23:15.258Z,26.50
2022-10-07T22:25:42.049Z,28.00
2022-10-07T22:28:08.526Z,28.00
2022-10-07T22:30:39.599Z,26.90
2022-10-07T22:33:06.623Z,27.70
2022-10-07T22:35:35.299Z,28.30
2022-10-07T22:38:02.448Z,29.10
2022-10-07T22:40:29.029Z,28.90
2022-10-07T22:42:55.913Z,27.60
2022-10-07T22:45:22.966Z,29.40
2022-10-07T22:47:50.321Z,28.50
2022-10-07T22:50:19.889Z,28.50
2022-10-07T22:52:47.876Z,26.70
2022-10-07T22:55:17.991Z,27.50
2022-10-07T22:57:44.422Z,28.80
2022-10-07T23:00:12.226Z,28.90
2022-10-07T23:02:38.728Z,28.80
2022-10-07T23:05:05.994Z,37.30
2022-10-07T23:07:32.857Z,39.50
2022-10-07T23:09:59.385Z,36.30
2022-10-07T23:12:25.885Z,39.20
2022-10-07T23:14:52.665Z,40.00
2022-10-07T23:17:19.425Z,40.00
2022-10-07T23:19:45.919Z,39.30
2022-10-07T23:22:12.991Z,36.60
2022-10-07T23:24:39.631Z,31.50
2022-10-07T23:27:06.148Z,28.30
2022-10-07T23:29:33.299Z,33.60
2022-10-07T23:31:59.992Z,29.40
2022-10-07T23:34:27.503Z,34.70
2022-10-07T23:36:55.370Z,31.00
2022-10-07T23:39:22.598Z,29.10
2022-10-07T23:41:49.272Z,28.70
2022-10-07T23:44:16.057Z,28.70
2022-10-07T23:46:42.837Z,29.10
2022-10-07T23:49:09.351Z,28.30
2022-10-07T23:51:36.018Z,29.60
2022-10-07T23:54:03.189Z,29.30
2022-10-07T23:56:30.102Z,29.80
2022-10-07T23:58:56.955Z,28.10
